createdAt,value
2023-08-14T00:01:35.263Z,4.63
2023-08-14T00:04:05.062Z,4.53
2023-08-14T00:06:33.118Z,4.60
2023-08-14T00:09:01.138Z,4.10
2023-08-14T00:11:29.171Z,3.80
2023-08-14T00:13:58.376Z,3.97
2023-08-14T00:16:27.000Z,5.07
2023-08-14T00:18:55.499Z,4.47
2023-08-14T00:21:26.275Z,4.47
2023-08-14T00:23:54.259Z,4.30
2023-08-14T00:26:22.303Z,4.27
2023-08-14T00:28:50.377Z,4.73
2023-08-14T00:31:19.175Z,4.27
2023-08-14T00:33:47.237Z,3.70
2023-08-14T00:36:15.222Z,4.47
2023-08-14T00:38:44.580Z,4.10
2023-08-14T00:41:12.597Z,4.17
2023-08-14T00:43:40.600Z,4.50
2023-08-14T00:46:09.530Z,4.50
2023-08-14T00:48:38.086Z,3.70
2023-08-14T00:51:06.430Z,5.63
2023-08-14T00:53:34.540Z,4.10
2023-08-14T00:56:05.431Z,4.37
2023-08-14T00:58:34.197Z,4.83
2023-08-14T01:01:02.560Z,4.60
2023-08-14T01:03:32.662Z,3.73
2023-08-14T01:06:00.804Z,4.53
2023-08-14T01:08:29.542Z,4.57
2023-08-14T01:11:01.653Z,4.07
2023-08-14T01:13:41.017Z,4.43
2023-08-14T01:16:12.245Z,4.17
2023-08-14T01:18:42.700Z,4.60
2023-08-14T01:21:38.600Z,3.87
2023-08-14T01:24:21.937Z,4.90
2023-08-14T01:26:52.034Z,5.80
2023-08-14T01:29:20.085Z,5.33
2023-08-14T01:31:48.078Z,4.90
2023-08-14T01:34:16.165Z,5.83
2023-08-14T01:36:52.919Z,5.73
2023-08-14T01:39:25.440Z,5.30
2023-08-14T01:42:02.058Z,5.87
2023-08-14T01:44:33.224Z,5.30
2023-08-14T01:47:05.057Z,5.63
2023-08-14T01:49:33.887Z,4.90
2023-08-14T01:52:02.986Z,5.33
2023-08-14T01:54:30.980Z,5.73
2023-08-14T01:57:00.290Z,4.97
2023-08-14T01:59:37.660Z,5.30
2023-08-14T02:02:05.759Z,5.20
2023-08-14T02:04:33.714Z,5.67
2023-08-14T02:07:01.711Z,5.77
2023-08-14T02:09:29.693Z,5.33
2023-08-14T02:11:57.651Z,6.10
2023-08-14T02:14:26.922Z,6.10
2023-08-14T02:16:54.902Z,6.33
2023-08-14T02:19:22.935Z,5.30
2023-08-14T02:21:51.041Z,5.67
2023-08-14T02:24:19.050Z,6.30
2023-08-14T02:26:46.991Z,5.90
2023-08-14T02:29:14.982Z,5.50
2023-08-14T02:31:46.738Z,5.23
2023-08-14T02:34:32.485Z,5.50
2023-08-14T02:37:00.442Z,5.70
2023-08-14T02:39:28.665Z,6.17
2023-08-14T02:41:56.633Z,5.90
2023-08-14T02:44:24.615Z,5.23
2023-08-14T02:46:55.838Z,5.57
2023-08-14T02:49:23.985Z,5.60
2023-08-14T02:51:52.022Z,4.67
2023-08-14T02:54:20.052Z,5.10
2023-08-14T02:56:48.206Z,6.63
2023-08-14T02:59:16.223Z,5.20
2023-08-14T03:01:44.458Z,4.93
2023-08-14T03:04:14.631Z,5.93
2023-08-14T03:06:42.596Z,6.10
2023-08-14T03:09:10.586Z,5.53
2023-08-14T03:11:38.586Z,6.07
2023-08-14T03:14:06.581Z,5.43
2023-08-14T03:16:34.743Z,5.27
2023-08-14T03:19:03.008Z,5.60
2023-08-14T03:21:32.355Z,4.97
2023-08-14T03:24:00.378Z,4.87
2023-08-14T03:26:28.402Z,7.03
2023-08-14T03:28:56.430Z,6.80
2023-08-14T03:31:24.443Z,4.83
2023-08-14T03:33:52.512Z,4.90
2023-08-14T03:36:20.472Z,4.93
2023-08-14T03:38:49.805Z,5.30
2023-08-14T03:41:19.223Z,5.10
2023-08-14T03:43:47.379Z,4.40
2023-08-14T03:46:15.363Z,3.90
2023-08-14T03:48:43.381Z,4.17
2023-08-14T03:51:11.619Z,3.90
2023-08-14T03:53:39.616Z,3.33
2023-08-14T03:56:09.048Z,3.50
2023-08-14T03:58:37.012Z,3.40
2023-08-14T04:01:05.124Z,4.10
2023-08-14T04:03:33.225Z,3.87
2023-08-14T04:06:02.612Z,3.77
2023-08-14T04:08:30.622Z,3.97
2023-08-14T04:10:59.297Z,3.30
2023-08-14T04:13:29.156Z,4.30
2023-08-14T04:16:00.688Z,2.80
2023-08-14T04:18:29.182Z,3.23
2023-08-14T04:20:58.210Z,3.40
2023-08-14T04:23:27.505Z,4.10
2023-08-14T04:25:55.715Z,2.83
2023-08-14T04:28:23.757Z,4.87
2023-08-14T04:30:53.194Z,4.63
2023-08-14T04:33:21.192Z,4.03
2023-08-14T04:35:49.155Z,2.40
2023-08-14T04:38:17.126Z,2.97
2023-08-14T04:40:45.139Z,3.70
2023-08-14T04:43:13.110Z,2.93
2023-08-14T04:45:41.160Z,3.00
2023-08-14T04:48:10.625Z,2.50
2023-08-14T04:50:38.628Z,2.70
2023-08-14T04:53:06.876Z,3.37
2023-08-14T04:55:34.983Z,2.50
2023-08-14T04:58:02.996Z,3.23
2023-08-14T05:00:31.015Z,2.43
2023-08-14T05:02:59.264Z,6.07
2023-08-14T05:05:28.694Z,3.07
2023-08-14T05:07:56.669Z,3.33
2023-08-14T05:10:24.670Z,2.03
2023-08-14T05:12:52.742Z,4.57
2023-08-14T05:15:20.708Z,2.80
2023-08-14T05:17:48.822Z,1.67
2023-08-14T05:20:17.177Z,1.90
2023-08-14T05:22:46.782Z,2.27
2023-08-14T05:25:14.918Z,1.80
2023-08-14T05:27:42.894Z,4.00
2023-08-14T05:30:12.162Z,2.13
2023-08-14T05:32:40.127Z,1.70
2023-08-14T05:35:08.687Z,2.07
2023-08-14T05:37:36.640Z,1.50
2023-08-14T05:40:07.128Z,2.57
2023-08-14T05:42:35.080Z,1.97
2023-08-14T05:45:03.200Z,2.23
2023-08-14T05:47:31.176Z,2.20
2023-08-14T05:49:59.158Z,2.30
2023-08-14T05:52:27.205Z,2.47
2023-08-14T05:54:56.589Z,2.40
2023-08-14T05:57:27.742Z,2.33
2023-08-14T05:59:55.930Z,2.20
2023-08-14T06:02:24.129Z,2.93
2023-08-14T06:04:52.151Z,3.23
2023-08-14T06:07:20.119Z,2.70
2023-08-14T06:09:48.106Z,2.80
2023-08-14T06:12:16.400Z,3.83
2023-08-14T06:14:49.172Z,2.30
2023-08-14T06:17:17.232Z,1.90
2023-08-14T06:19:45.220Z,2.47
2023-08-14T06:22:13.238Z,3.13
2023-08-14T06:24:41.292Z,2.20
2023-08-14T06:27:09.500Z,2.50
2023-08-14T06:29:37.541Z,4.07
2023-08-14T06:32:07.378Z,2.50
2023-08-14T06:34:35.456Z,2.60
2023-08-14T06:37:03.612Z,2.37
2023-08-14T06:39:31.985Z,2.60
2023-08-14T06:42:00.029Z,2.23
2023-08-14T06:44:28.088Z,2.10
2023-08-14T06:46:56.132Z,2.17
2023-08-14T06:49:25.564Z,2.20
2023-08-14T06:51:53.551Z,2.83
2023-08-14T06:54:21.642Z,6.77
2023-08-14T06:56:49.782Z,1.97
2023-08-14T06:59:17.837Z,2.00
2023-08-14T07:01:45.857Z,1.83
2023-08-14T07:04:13.909Z,4.07
2023-08-14T07:06:43.329Z,3.77
2023-08-14T07:09:11.837Z,3.13
2023-08-14T07:11:40.957Z,2.07
2023-08-14T07:14:08.991Z,2.13
2023-08-14T07:16:37.562Z,2.73
2023-08-14T07:19:05.975Z,1.90
2023-08-14T07:21:33.998Z,1.93
2023-08-14T07:24:03.445Z,2.07
2023-08-14T07:26:31.500Z,3.37
2023-08-14T07:28:59.511Z,3.13
2023-08-14T07:31:27.550Z,2.13
2023-08-14T07:33:55.552Z,3.63
2023-08-14T07:36:23.683Z,2.20
2023-08-14T07:38:51.677Z,1.90
2023-08-14T07:41:21.026Z,2.87
2023-08-14T07:43:48.983Z,1.73
2023-08-14T07:46:18.415Z,2.30
2023-08-14T07:48:46.857Z,2.07
2023-08-14T07:51:14.830Z,1.80
2023-08-14T07:53:42.834Z,2.07
2023-08-14T07:56:10.875Z,2.30
2023-08-14T07:58:42.656Z,2.07
2023-08-14T08:01:10.738Z,1.90
2023-08-14T08:03:38.786Z,2.30
2023-08-14T08:06:07.140Z,2.80
2023-08-14T08:08:35.192Z,2.40
2023-08-14T08:11:03.209Z,2.27
2023-08-14T08:13:31.222Z,3.20
2023-08-14T08:16:00.633Z,2.70
2023-08-14T08:18:28.688Z,2.33
2023-08-14T08:20:56.709Z,2.97
2023-08-14T08:23:24.849Z,2.40
2023-08-14T08:25:52.849Z,3.53
2023-08-14T08:28:23.942Z,3.20
2023-08-14T08:30:51.973Z,2.80
2023-08-14T08:33:27.498Z,2.60
2023-08-14T08:35:56.015Z,3.07
2023-08-14T08:38:24.009Z,2.77
2023-08-14T08:40:52.513Z,3.20
2023-08-14T08:43:21.544Z,3.17
2023-08-14T08:45:51.368Z,4.37
2023-08-14T08:48:24.211Z,3.53
2023-08-14T08:50:53.085Z,3.27
2023-08-14T08:53:21.653Z,3.10
2023-08-14T08:55:50.496Z,3.70
2023-08-14T08:58:59.766Z,4.17
2023-08-14T09:01:27.962Z,4.57
2023-08-14T09:03:57.578Z,3.93
2023-08-14T09:06:25.800Z,3.87
2023-08-14T09:08:53.878Z,5.00
2023-08-14T09:11:22.000Z,3.70
2023-08-14T09:13:50.602Z,4.40
2023-08-14T09:16:19.105Z,4.30
2023-08-14T09:18:47.482Z,5.30
2023-08-14T09:21:17.437Z,5.07
2023-08-14T09:23:46.024Z,5.10
2023-08-14T09:26:14.093Z,4.90
2023-08-14T09:28:42.496Z,4.70
2023-08-14T09:31:11.807Z,5.40
2023-08-14T09:33:41.616Z,4.30
2023-08-14T09:36:10.595Z,4.37
2023-08-14T09:38:41.035Z,4.50
2023-08-14T09:41:09.111Z,4.40
2023-08-14T09:43:37.570Z,5.37
2023-08-14T09:46:05.638Z,4.90
2023-08-14T09:48:43.596Z,4.70
2023-08-14T09:51:13.369Z,5.00
2023-08-14T09:53:51.554Z,4.10
2023-08-14T09:56:20.862Z,5.23
2023-08-14T09:58:49.612Z,4.33
2023-08-14T10:01:19.211Z,3.73
2023-08-14T10:03:50.258Z,4.80
2023-08-14T10:06:20.014Z,4.80
2023-08-14T10:08:52.020Z,5.13
2023-08-14T10:11:21.026Z,4.13
2023-08-14T10:13:54.050Z,4.80
2023-08-14T10:16:24.711Z,4.67
2023-08-14T10:18:55.952Z,5.00
2023-08-14T10:21:27.915Z,4.30
2023-08-14T10:24:00.741Z,4.77
2023-08-14T10:26:29.428Z,4.70
2023-08-14T10:28:58.526Z,5.13
2023-08-14T10:31:28.864Z,4.90
2023-08-14T10:33:57.474Z,4.77
2023-08-14T10:36:29.435Z,4.97
2023-08-14T10:39:08.453Z,5.00
2023-08-14T10:41:37.004Z,4.83
2023-08-14T10:44:09.066Z,4.00
2023-08-14T10:46:39.373Z,4.40
2023-08-14T10:49:07.553Z,4.50
2023-08-14T10:51:35.828Z,4.70
2023-08-14T10:54:11.220Z,4.53
2023-08-14T10:56:44.301Z,4.90
2023-08-14T10:59:23.908Z,4.37
2023-08-14T11:01:53.663Z,5.87
2023-08-14T11:04:21.831Z,4.40
2023-08-14T11:07:13.104Z,4.87
2023-08-14T11:09:42.626Z,4.43
2023-08-14T11:12:12.589Z,4.27
2023-08-14T11:14:59.508Z,5.07
2023-08-14T11:17:28.257Z,4.33
2023-08-14T11:19:56.549Z,4.93
2023-08-14T11:22:24.829Z,4.50
2023-08-14T11:24:54.192Z,4.63
2023-08-14T11:27:22.487Z,4.80
2023-08-14T11:29:53.368Z,5.20
2023-08-14T11:32:23.408Z,4.80
2023-08-14T11:34:52.845Z,3.53
2023-08-14T11:37:21.023Z,4.30
2023-08-14T11:39:50.292Z,3.70
2023-08-14T11:42:19.955Z,3.40
2023-08-14T11:44:48.491Z,4.17
2023-08-14T11:47:17.136Z,4.10
2023-08-14T11:49:45.222Z,4.13
2023-08-14T11:52:13.252Z,4.33
2023-08-14T11:54:41.356Z,4.30
2023-08-14T11:57:09.713Z,3.90
2023-08-14T11:59:39.820Z,4.87
2023-08-14T12:02:10.797Z,6.33
2023-08-14T12:04:41.717Z,5.67
2023-08-14T12:07:12.159Z,5.17
2023-08-14T12:09:40.558Z,5.43
2023-08-14T12:12:09.073Z,4.30
2023-08-14T12:14:43.663Z,5.03
2023-08-14T12:17:17.126Z,4.60
2023-08-14T12:19:52.203Z,4.87
2023-08-14T12:22:22.523Z,6.37
2023-08-14T12:24:51.265Z,5.77
2023-08-14T12:27:20.222Z,4.80
2023-08-14T12:29:50.750Z,4.27
2023-08-14T12:32:19.370Z,4.10
2023-08-14T12:34:47.973Z,4.73
2023-08-14T12:37:16.534Z,5.70
2023-08-14T12:39:46.640Z,4.37
2023-08-14T12:42:14.676Z,4.93
2023-08-14T12:44:42.956Z,4.30
2023-08-14T12:47:12.598Z,4.50
2023-08-14T12:49:40.671Z,4.33
2023-08-14T12:52:10.234Z,4.37
2023-08-14T12:54:39.718Z,4.30
2023-08-14T12:57:08.410Z,4.00
2023-08-14T12:59:36.483Z,4.77
2023-08-14T13:02:04.485Z,5.50
2023-08-14T13:04:36.269Z,4.13
2023-08-14T13:07:04.911Z,4.03
2023-08-14T13:09:32.896Z,5.57
2023-08-14T13:12:02.197Z,4.37
2023-08-14T13:14:46.876Z,3.60
2023-08-14T13:17:14.881Z,4.50
2023-08-14T13:19:44.383Z,3.90
2023-08-14T13:22:13.914Z,3.43
2023-08-14T13:24:41.897Z,4.23
2023-08-14T13:27:10.109Z,4.67
2023-08-14T13:29:38.906Z,3.73
2023-08-14T13:32:07.651Z,4.13
2023-08-14T13:34:35.674Z,4.10
2023-08-14T13:37:05.174Z,6.63
2023-08-14T13:39:33.257Z,4.00
2023-08-14T13:42:01.272Z,4.10
2023-08-14T13:44:29.255Z,3.20
2023-08-14T13:46:57.231Z,3.23
2023-08-14T13:49:25.273Z,3.50
2023-08-14T13:51:53.227Z,3.50
2023-08-14T13:54:22.572Z,3.87
2023-08-14T13:56:50.574Z,4.97
2023-08-14T13:59:18.570Z,3.60
2023-08-14T14:01:46.621Z,3.20
2023-08-14T14:04:14.701Z,3.50
2023-08-14T14:06:42.692Z,3.60
2023-08-14T14:09:10.685Z,4.27
2023-08-14T14:11:40.104Z,3.50
2023-08-14T14:14:08.082Z,4.03
2023-08-14T14:16:57.198Z,4.80
2023-08-14T14:19:25.621Z,4.63
2023-08-14T14:21:54.037Z,4.37
2023-08-14T14:24:22.105Z,4.00
2023-08-14T14:26:51.857Z,4.00
2023-08-14T14:29:20.025Z,5.10
2023-08-14T14:31:48.106Z,5.30
2023-08-14T14:34:16.298Z,3.50
2023-08-14T14:36:44.288Z,4.33
2023-08-14T14:39:12.412Z,4.00
2023-08-14T14:41:40.633Z,4.33
2023-08-14T14:44:10.182Z,3.83
2023-08-14T14:46:47.610Z,3.83
2023-08-14T14:49:15.580Z,5.23
2023-08-14T14:51:43.633Z,4.00
2023-08-14T14:54:11.623Z,3.60
2023-08-14T14:56:39.667Z,3.80
2023-08-14T14:59:09.226Z,4.00
2023-08-14T15:01:37.257Z,3.93
2023-08-14T15:04:05.601Z,4.97
2023-08-14T15:06:33.554Z,4.90
2023-08-14T15:09:01.566Z,5.00
2023-08-14T15:11:29.575Z,4.33
2023-08-14T15:13:57.600Z,5.10
2023-08-14T15:16:27.032Z,3.93
2023-08-14T15:18:55.841Z,4.10
2023-08-14T15:21:23.940Z,4.10
2023-08-14T15:23:51.924Z,4.80
2023-08-14T15:26:20.012Z,4.77
2023-08-14T15:28:48.282Z,3.77
2023-08-14T15:31:17.189Z,3.90
2023-08-14T15:33:46.501Z,3.37
2023-08-14T15:36:16.069Z,4.30
2023-08-14T15:38:44.063Z,5.57
2023-08-14T15:41:12.252Z,3.70
2023-08-14T15:43:40.251Z,5.30
2023-08-14T15:46:08.331Z,4.33
2023-08-14T15:48:36.314Z,4.13
2023-08-14T15:51:05.623Z,4.37
2023-08-14T15:53:33.614Z,4.70
2023-08-14T15:56:01.616Z,4.60
2023-08-14T15:58:29.629Z,4.70
2023-08-14T16:00:58.648Z,4.07
2023-08-14T16:03:26.873Z,3.93
2023-08-14T16:05:58.792Z,4.30
2023-08-14T16:08:28.193Z,3.93
2023-08-14T16:10:56.127Z,4.60
2023-08-14T16:13:24.125Z,4.23
2023-08-14T16:15:52.096Z,4.53
2023-08-14T16:18:20.108Z,4.40
2023-08-14T16:20:48.132Z,5.00
2023-08-14T16:23:16.149Z,3.60
2023-08-14T16:25:45.704Z,4.93
2023-08-14T16:28:13.694Z,4.97
2023-08-14T16:30:42.065Z,5.17
2023-08-14T16:33:10.173Z,5.13
2023-08-14T16:35:38.219Z,5.83
2023-08-14T16:38:06.814Z,6.07
2023-08-14T16:40:34.945Z,4.70
2023-08-14T16:43:04.401Z,4.90
2023-08-14T16:45:32.375Z,4.90
2023-08-14T16:48:00.441Z,4.57
2023-08-14T16:50:28.450Z,5.37
2023-08-14T16:52:56.402Z,5.33
2023-08-14T16:55:24.408Z,5.20
2023-08-14T16:57:52.404Z,5.00
2023-08-14T17:00:21.730Z,4.80
2023-08-14T17:02:49.788Z,4.97
2023-08-14T17:05:18.201Z,4.90
2023-08-14T17:07:46.239Z,4.60
2023-08-14T17:10:15.069Z,5.03
2023-08-14T17:12:43.972Z,4.70
2023-08-14T17:15:12.889Z,5.50
2023-08-14T17:17:42.393Z,4.87
2023-08-14T17:20:11.132Z,5.00
2023-08-14T17:22:39.985Z,4.80
2023-08-14T17:25:08.810Z,5.30
2023-08-14T17:27:37.348Z,4.67
2023-08-14T17:30:06.654Z,5.83
2023-08-14T17:32:35.074Z,7.60
2023-08-14T17:35:04.965Z,7.30
2023-08-14T17:37:32.999Z,7.93
2023-08-14T17:40:01.064Z,7.53
2023-08-14T17:42:29.725Z,7.70
2023-08-14T17:44:57.726Z,8.00
2023-08-14T17:47:25.874Z,7.07
2023-08-14T17:49:55.216Z,7.63
2023-08-14T17:52:24.642Z,5.13
2023-08-14T17:54:52.671Z,5.93
2023-08-14T17:57:20.845Z,5.20
2023-08-14T17:59:48.955Z,5.37
2023-08-14T18:02:16.935Z,5.50
2023-08-14T18:04:44.972Z,6.73
2023-08-14T18:07:12.968Z,6.33
2023-08-14T18:09:43.058Z,5.87
2023-08-14T18:12:11.073Z,5.33
2023-08-14T18:14:39.176Z,5.53
2023-08-14T18:17:07.167Z,5.30
2023-08-14T18:19:35.239Z,6.10
2023-08-14T18:22:03.204Z,5.30
2023-08-14T18:24:32.003Z,5.23
2023-08-14T18:27:01.322Z,5.20
2023-08-14T18:29:29.310Z,4.93
2023-08-14T18:31:57.422Z,5.23
2023-08-14T18:34:25.482Z,5.90
2023-08-14T18:36:53.524Z,5.93
2023-08-14T18:39:21.616Z,5.10
2023-08-14T18:41:49.588Z,5.10
2023-08-14T18:44:18.943Z,5.50
2023-08-14T18:46:47.090Z,5.47
2023-08-14T18:49:15.074Z,5.97
2023-08-14T18:51:43.452Z,5.00
2023-08-14T18:54:11.983Z,6.00
2023-08-14T18:56:40.003Z,4.80
2023-08-14T18:59:11.486Z,5.30
2023-08-14T19:01:40.938Z,5.83
2023-08-14T19:04:09.265Z,5.30
2023-08-14T19:06:37.372Z,5.00
2023-08-14T19:09:05.718Z,5.30
2023-08-14T19:11:33.892Z,5.80
2023-08-14T19:14:01.982Z,6.07
2023-08-14T19:16:30.400Z,6.07
2023-08-14T19:18:59.833Z,5.47
2023-08-14T19:21:27.902Z,6.13
2023-08-14T19:23:55.905Z,5.80
2023-08-14T19:26:28.188Z,5.67
2023-08-14T19:28:57.564Z,5.47
2023-08-14T19:31:26.863Z,5.53
2023-08-14T19:33:59.437Z,5.20
2023-08-14T19:36:28.758Z,5.80
2023-08-14T19:38:56.815Z,7.03
2023-08-14T19:41:25.323Z,5.10
2023-08-14T19:43:53.424Z,6.03
2023-08-14T19:46:21.549Z,5.90
2023-08-14T19:48:49.657Z,5.60
2023-08-14T19:51:17.646Z,5.03
2023-08-14T19:53:46.976Z,5.80
2023-08-14T19:56:15.084Z,5.07
2023-08-14T19:58:43.265Z,6.57
2023-08-14T20:01:12.088Z,5.77
2023-08-14T20:03:41.098Z,6.13
2023-08-14T20:06:09.364Z,5.83
2023-08-14T20:08:37.343Z,5.97
2023-08-14T20:11:07.094Z,5.60
2023-08-14T20:13:35.092Z,5.47
2023-08-14T20:16:03.321Z,5.43
2023-08-14T20:18:31.348Z,5.67
2023-08-14T20:21:00.492Z,5.60
2023-08-14T20:23:30.160Z,5.00
2023-08-14T20:25:58.253Z,5.67
2023-08-14T20:28:27.690Z,6.27
2023-08-14T20:30:55.723Z,5.70
2023-08-14T20:33:23.873Z,6.30
2023-08-14T20:35:51.872Z,8.80
2023-08-14T20:38:19.836Z,5.80
2023-08-14T20:40:47.851Z,7.00
2023-08-14T20:43:21.676Z,6.40
2023-08-14T20:45:50.974Z,5.97
2023-08-14T20:48:18.965Z,5.83
2023-08-14T20:50:47.356Z,5.80
2023-08-14T20:53:16.921Z,6.80
2023-08-14T20:55:45.183Z,7.17
2023-08-14T20:58:13.279Z,6.33
2023-08-14T21:00:45.208Z,6.50
2023-08-14T21:03:17.157Z,5.33
2023-08-14T21:05:46.921Z,5.87
2023-08-14T21:08:15.145Z,5.80
2023-08-14T21:10:43.807Z,5.67
2023-08-14T21:13:11.913Z,6.57
2023-08-14T21:15:40.040Z,9.70
2023-08-14T21:18:09.029Z,7.20
2023-08-14T21:20:41.978Z,6.00
2023-08-14T21:23:10.013Z,6.20
2023-08-14T21:28:12.419Z,6.73
2023-08-14T21:30:40.385Z,6.40
2023-08-14T21:33:08.435Z,6.77
2023-08-14T21:35:37.865Z,7.03
2023-08-14T21:38:06.069Z,5.90
2023-08-14T21:40:35.769Z,6.93
2023-08-14T21:43:05.789Z,6.90
2023-08-14T21:45:33.889Z,6.77
2023-08-14T21:48:02.604Z,6.73
2023-08-14T21:50:30.588Z,7.63
2023-08-14T21:52:59.895Z,6.63
2023-08-14T21:55:27.872Z,6.17
2023-08-14T21:57:55.855Z,7.33
2023-08-14T22:00:23.904Z,6.70
2023-08-14T22:02:52.069Z,7.10
2023-08-14T22:05:20.224Z,6.73
2023-08-14T22:07:48.232Z,7.83
2023-08-14T22:10:17.577Z,6.70
2023-08-14T22:12:46.125Z,8.43
2023-08-14T22:15:14.592Z,6.93
2023-08-14T22:17:42.719Z,7.17
2023-08-14T22:20:12.531Z,6.60
2023-08-14T22:22:40.576Z,6.50
2023-08-14T22:25:09.504Z,7.40
2023-08-14T22:27:41.347Z,7.37
2023-08-14T22:30:11.031Z,6.80
2023-08-14T22:32:39.101Z,10.77
2023-08-14T22:35:07.725Z,6.63
2023-08-14T22:37:35.706Z,6.80
2023-08-14T22:40:04.722Z,6.90
2023-08-14T22:42:32.683Z,6.00
2023-08-14T22:45:06.322Z,6.90
2023-08-14T22:47:34.333Z,6.80
2023-08-14T22:50:02.430Z,6.20
2023-08-14T22:52:30.957Z,6.07
2023-08-14T22:54:58.961Z,6.57
2023-08-14T22:57:26.945Z,6.10
2023-08-14T22:59:54.970Z,6.63
2023-08-14T23:02:24.385Z,6.63
2023-08-14T23:04:52.387Z,6.80
2023-08-14T23:07:20.587Z,6.13
2023-08-14T23:09:48.925Z,6.50
2023-08-14T23:12:16.919Z,6.10
2023-08-14T23:14:44.877Z,7.53
2023-08-14T23:17:12.892Z,6.83
2023-08-14T23:19:42.199Z,6.73
2023-08-14T23:22:10.191Z,6.90
2023-08-14T23:24:38.201Z,7.23
2023-08-14T23:27:06.271Z,6.90
2023-08-14T23:29:34.301Z,6.67
2023-08-14T23:32:02.416Z,7.70
2023-08-14T23:34:30.786Z,7.10
2023-08-14T23:37:00.332Z,6.60
2023-08-14T23:39:28.402Z,7.17
2023-08-14T23:41:56.385Z,7.83
2023-08-14T23:44:24.448Z,7.50
2023-08-14T23:46:52.540Z,6.10
2023-08-14T23:49:20.578Z,6.23
2023-08-14T23:51:48.558Z,6.00
2023-08-14T23:54:18.911Z,7.53
2023-08-14T23:56:46.942Z,6.53
2023-08-14T23:59:15.036Z,7.67
